KBLI/BLI METAR and TAF weather

Enter ICAO airport designator
Station Type Date Time Source
KBLI METAR 2019/06/24 22:53 UTC NOAA

KBLI 242253Z 18008KT 10SM CLR 18/07 A3000 RMK AO2 SLP165 T01780072


Station Type Date Time Source
KBLI Decoded METAR 2019/06/24 22:53 UTC NOAA

BELLINGHAM INTERNATIONAL AIRPORT, WA, United States (KBLI) 48-48N 122-32W 50M
Jun 24, 2019 - 06:53 PM EDT / 2019.06.24 2253 UTC
Wind: from the S (180 degrees) at 9 MPH (8 KT):0
Visibility: 10 mile(s):0
Sky conditions: clear
Temperature: 64.0 F (17.8 C)
Dew Point: 45.0 F (7.2 C)
Relative Humidity: 49%
Pressure (altimeter): 30 in. Hg (1015 hPa)
ob: KBLI 242253Z 18008KT 10SM CLR 18/07 A3000 RMK AO2 SLP165 T01780072
cycle: 23

Station Type Date Time Source
KBLI TAF 2019/06/24 18:27 UTC NOAA

TAF KBLI 241723Z 2418/2518 18008KT P6SM SCT030 OVC050
FM242100 19010KT P6SM BKN050
FM250100 17007KT P6SM FEW050 SCT200
FM251500 16004KT P6SM FEW120 SCT200

Example: see airport list